Time;durP1;ratioP1;P1;durP2;ratioP2;P2;SDS_P1;SDS_P2;PMS_P1;PMS_P2;Temp;Humidity;BMP_temperature;BMP_pressure;BME280_temperature;BME280_humidity;BME280_pressure;Samples;Min_cycle;Max_cycle;Signal;HPM_P1;HPM_P2
2023/10/27 00:00:41;;;;;;;5.70;2.20;;;;;;;;;;5092445;28;20123;-72
2023/10/27 00:03:07;;;;;;;4.45;2.45;;;;;;;;;;5092762;28;20024;-73
2023/10/27 00:05:33;;;;;;;3.70;2.20;;;;;;;;;;5093899;28;20020;-73
2023/10/27 00:07:59;;;;;;;3.70;2.10;;;;;;;;;;5093708;28;20060;-73
2023/10/27 00:10:25;;;;;;;6.28;2.25;;;;;;;;;;5093543;28;20027;-73
2023/10/27 00:12:52;;;;;;;7.07;2.80;;;;;;;;;;5093569;28;20490;-73
2023/10/27 00:15:18;;;;;;;4.57;2.40;;;;;;;;;;5093573;28;20028;-74
2023/10/27 00:17:44;;;;;;;3.72;2.60;;;;;;;;;;5093510;28;20058;-73
2023/10/27 00:20:10;;;;;;;2.67;2.03;;;;;;;;;;5093275;28;20020;-73
2023/10/27 00:22:36;;;;;;;3.15;2.47;;;;;;;;;;5092028;28;20449;-73
2023/10/27 00:25:03;;;;;;;6.30;2.25;;;;;;;;;;5092244;28;20050;-73
2023/10/27 00:27:29;;;;;;;4.32;2.38;;;;;;;;;;5092170;28;20028;-72
2023/10/27 00:29:55;;;;;;;4.50;2.47;;;;;;;;;;5092211;28;20501;-73
2023/10/27 00:32:21;;;;;;;6.50;2.53;;;;;;;;;;5091856;28;20027;-73
2023/10/27 00:34:47;;;;;;;3.90;2.60;;;;;;;;;;5092022;28;20399;-73
2023/10/27 00:37:13;;;;;;;5.20;2.40;;;;;;;;;;5091906;28;20217;-73
2023/10/27 00:39:39;;;;;;;8.27;2.70;;;;;;;;;;5091884;28;20036;-73
2023/10/27 00:42:05;;;;;;;5.55;2.60;;;;;;;;;;5091688;28;20024;-73
2023/10/27 00:44:31;;;;;;;6.18;2.63;;;;;;;;;;5091766;28;20035;-74
2023/10/27 00:46:57;;;;;;;4.57;2.42;;;;;;;;;;5090623;28;20020;-73
2023/10/27 00:49:24;;;;;;;13.68;3.05;;;;;;;;;;5093242;28;20383;-73
2023/10/27 00:51:50;;;;;;;5.47;2.53;;;;;;;;;;5092339;28;20047;-73
2023/10/27 00:54:17;;;;;;;4.05;2.42;;;;;;;;;;5093399;28;20482;-73
2023/10/27 00:56:44;;;;;;;3.90;2.45;;;;;;;;;;5095345;28;20095;-73
2023/10/27 00:59:10;;;;;;;6.82;2.60;;;;;;;;;;5097175;28;20024;-74
2023/10/27 01:01:37;;;;;;;6.10;2.17;;;;;;;;;;5095928;28;20476;-73
2023/10/27 01:04:03;;;;;;;10.77;3.03;;;;;;;;;;5096060;28;20024;-73
2023/10/27 01:06:30;;;;;;;5.30;2.72;;;;;;;;;;5095840;28;20050;-71
2023/10/27 01:08:56;;;;;;;5.53;2.38;;;;;;;;;;5095678;28;20103;-73
2023/10/27 01:11:22;;;;;;;5.07;2.47;;;;;;;;;;5094319;28;20059;-73
2023/10/27 01:13:52;;;;;;;7.03;2.78;;;;;;;;;;5095869;28;20399;-75
2023/10/27 01:16:18;;;;;;;4.07;2.53;;;;;;;;;;5095794;28;20024;-73
2023/10/27 01:18:44;;;;;;;3.67;2.22;;;;;;;;;;5095497;28;20119;-74
2023/10/27 01:21:10;;;;;;;5.57;2.58;;;;;;;;;;5095367;28;20082;-72
2023/10/27 01:23:36;;;;;;;4.10;2.55;;;;;;;;;;5095626;28;20049;-73
2023/10/27 01:26:03;;;;;;;4.13;2.50;;;;;;;;;;5095666;28;20055;-72
2023/10/27 01:28:29;;;;;;;5.15;2.25;;;;;;;;;;5095477;28;20028;-74
2023/10/27 01:30:56;;;;;;;4.45;2.20;;;;;;;;;;5096842;28;20075;-73
2023/10/27 01:33:22;;;;;;;5.60;2.10;;;;;;;;;;5096014;28;20107;-72
2023/10/27 01:35:48;;;;;;;5.97;2.05;;;;;;;;;;5095436;28;20028;-74
2023/10/27 01:38:14;;;;;;;7.03;2.25;;;;;;;;;;5095163;28;20368;-74
2023/10/27 01:40:46;;;;;;;5.40;2.15;;;;;;;;;;5095027;28;20022;-72
2023/10/27 01:43:13;;;;;;;3.83;1.90;;;;;;;;;;5094452;28;20395;-73
2023/10/27 01:45:38;;;;;;;5.60;2.33;;;;;;;;;;5095162;28;20065;-72
2023/10/27 01:48:04;;;;;;;4.75;2.00;;;;;;;;;;5094976;28;20024;-73
2023/10/27 01:50:30;;;;;;;3.65;2.25;;;;;;;;;;5094830;28;20067;-73
2023/10/27 01:52:56;;;;;;;4.85;2.00;;;;;;;;;;5098011;28;20115;-74
2023/10/27 01:55:24;;;;;;;5.75;1.95;;;;;;;;;;5099827;28;20099;-73
2023/10/27 01:57:50;;;;;;;3.90;1.90;;;;;;;;;;5099220;28;20364;-73
2023/10/27 02:00:16;;;;;;;4.72;1.63;;;;;;;;;;5094934;28;20049;-73
2023/10/27 02:02:42;;;;;;;5.57;1.80;;;;;;;;;;5095414;28;20097;-73
2023/10/27 02:05:09;;;;;;;4.28;1.85;;;;;;;;;;5100478;28;20024;-73
2023/10/27 02:07:35;;;;;;;4.65;2.10;;;;;;;;;;5108426;28;20016;-73
2023/10/27 02:10:01;;;;;;;5.30;2.47;;;;;;;;;;5099458;28;20032;-73
2023/10/27 02:12:27;;;;;;;7.75;2.10;;;;;;;;;;5094230;28;20032;-73
2023/10/27 02:14:53;;;;;;;6.97;2.28;;;;;;;;;;5094742;28;20063;-74
2023/10/27 02:17:19;;;;;;;5.80;2.13;;;;;;;;;;5094388;28;20020;-72
2023/10/27 02:19:45;;;;;;;5.55;2.22;;;;;;;;;;5094375;28;20102;-73
2023/10/27 02:22:11;;;;;;;6.10;1.98;;;;;;;;;;5094214;28;20115;-74
2023/10/27 02:24:38;;;;;;;3.55;1.83;;;;;;;;;;5094322;28;20120;-74
2023/10/27 02:27:04;;;;;;;3.42;1.63;;;;;;;;;;5097942;28;20494;-72
2023/10/27 02:29:30;;;;;;;6.40;2.65;;;;;;;;;;5104220;28;20028;-73
2023/10/27 02:31:56;;;;;;;4.53;2.10;;;;;;;;;;5095594;28;20032;-73
2023/10/27 02:34:22;;;;;;;8.40;1.90;;;;;;;;;;5095990;28;20028;-73
2023/10/27 02:36:48;;;;;;;6.60;2.00;;;;;;;;;;5095855;28;20026;-73
2023/10/27 02:39:14;;;;;;;5.47;2.30;;;;;;;;;;5077972;28;20028;-73
2023/10/27 02:41:40;;;;;;;6.55;2.20;;;;;;;;;;5095332;28;20028;-73
2023/10/27 02:44:06;;;;;;;5.60;1.92;;;;;;;;;;5095427;28;20080;-74
2023/10/27 02:46:33;;;;;;;4.13;2.13;;;;;;;;;;5093992;28;20501;-73
2023/10/27 02:48:59;;;;;;;4.80;2.17;;;;;;;;;;5094062;28;20028;-74
2023/10/27 02:51:25;;;;;;;5.93;2.50;;;;;;;;;;5093782;28;20049;-74
2023/10/27 02:53:51;;;;;;;5.72;2.45;;;;;;;;;;5094080;28;20039;-73
2023/10/27 02:56:17;;;;;;;6.13;2.10;;;;;;;;;;5094403;28;20021;-74
2023/10/27 02:58:43;;;;;;;6.80;2.50;;;;;;;;;;5093874;28;20108;-74
2023/10/27 03:01:10;;;;;;;4.93;2.55;;;;;;;;;;5095676;28;20024;-74
2023/10/27 03:03:36;;;;;;;5.05;2.15;;;;;;;;;;5094117;28;20547;-72
2023/10/27 03:06:03;;;;;;;5.70;2.55;;;;;;;;;;5093492;28;20024;-73
2023/10/27 03:08:29;;;;;;;6.00;2.42;;;;;;;;;;5093678;28;20052;-73
2023/10/27 03:10:55;;;;;;;5.03;2.20;;;;;;;;;;5093329;28;20085;-74
2023/10/27 03:13:21;;;;;;;6.63;2.75;;;;;;;;;;5093221;28;20028;-73
2023/10/27 03:15:47;;;;;;;6.95;3.15;;;;;;;;;;5092176;28;20038;-74
2023/10/27 03:18:13;;;;;;;3.83;2.55;;;;;;;;;;5094667;28;20024;-73
2023/10/27 03:20:39;;;;;;;3.97;2.35;;;;;;;;;;5108738;28;20020;-74
2023/10/27 03:23:05;;;;;;;8.02;2.50;;;;;;;;;;5117758;28;20020;-74
2023/10/27 03:25:31;;;;;;;5.32;2.90;;;;;;;;;;5117719;28;20024;-73
2023/10/27 03:27:57;;;;;;;5.85;2.60;;;;;;;;;;5118855;28;20040;-73
2023/10/27 03:30:24;;;;;;;6.43;2.60;;;;;;;;;;5113638;28;20081;-73
2023/10/27 03:32:50;;;;;;;7.93;3.35;;;;;;;;;;5093457;28;20023;-73
2023/10/27 03:35:16;;;;;;;11.20;3.20;;;;;;;;;;5093041;28;20024;-74
2023/10/27 03:37:42;;;;;;;7.13;2.97;;;;;;;;;;5097757;28;20197;-74
2023/10/27 03:40:09;;;;;;;5.40;2.60;;;;;;;;;;5099246;28;20468;-73
2023/10/27 03:42:35;;;;;;;4.93;2.50;;;;;;;;;;5092224;28;20024;-73
2023/10/27 03:45:01;;;;;;;5.72;2.53;;;;;;;;;;5092747;28;20028;-73
2023/10/27 03:47:27;;;;;;;8.07;3.10;;;;;;;;;;5092836;28;20023;-76
2023/10/27 03:49:53;;;;;;;7.22;2.58;;;;;;;;;;5092929;28;20085;-73
2023/10/27 03:52:19;;;;;;;8.65;2.53;;;;;;;;;;5092620;28;20020;-73
2023/10/27 03:54:44;;;;;;;9.48;2.88;;;;;;;;;;5092736;28;20050;-72
2023/10/27 03:57:10;;;;;;;4.32;1.95;;;;;;;;;;5092545;28;20076;-72
2023/10/27 03:59:36;;;;;;;10.35;2.83;;;;;;;;;;5092589;28;20031;-73
2023/10/27 04:02:02;;;;;;;6.93;3.20;;;;;;;;;;5092910;28;20422;-73
2023/10/27 04:04:28;;;;;;;7.07;2.95;;;;;;;;;;5092549;28;20020;-72
2023/10/27 04:06:56;;;;;;;5.35;2.63;;;;;;;;;;5092181;28;20028;-71
2023/10/27 04:09:22;;;;;;;8.30;2.85;;;;;;;;;;5092390;28;20016;-72
2023/10/27 04:11:49;;;;;;;6.72;2.90;;;;;;;;;;5092008;28;20035;-72
2023/10/27 04:14:15;;;;;;;5.72;2.90;;;;;;;;;;5094821;28;20032;-72
2023/10/27 04:16:41;;;;;;;7.35;2.70;;;;;;;;;;5097331;28;20544;-73
2023/10/27 04:19:07;;;;;;;8.30;2.50;;;;;;;;;;5100231;28;20050;-73
2023/10/27 04:21:33;;;;;;;10.65;3.03;;;;;;;;;;5095074;28;20103;-73
2023/10/27 04:23:59;;;;;;;7.53;3.40;;;;;;;;;;5092469;28;20016;-72
2023/10/27 04:26:25;;;;;;;5.22;2.65;;;;;;;;;;5092873;28;20020;-72
2023/10/27 04:28:52;;;;;;;4.05;2.17;;;;;;;;;;5092368;28;20598;-73
2023/10/27 04:31:18;;;;;;;6.72;2.10;;;;;;;;;;5091507;28;20428;-74
2023/10/27 04:33:47;;;;;;;3.90;2.38;;;;;;;;;;5092416;28;20042;-75
2023/10/27 04:36:13;;;;;;;3.75;2.13;;;;;;;;;;5093140;28;20028;-77
2023/10/27 04:38:39;;;;;;;4.63;2.10;;;;;;;;;;5092499;28;20028;-76
2023/10/27 04:41:05;;;;;;;7.68;2.10;;;;;;;;;;5091736;28;20727;-74
2023/10/27 04:43:31;;;;;;;4.88;2.30;;;;;;;;;;5091666;28;20028;-74
2023/10/27 04:45:57;;;;;;;3.72;1.77;;;;;;;;;;5091874;28;20078;-73
2023/10/27 04:48:23;;;;;;;3.10;1.95;;;;;;;;;;5090479;28;20024;-73
2023/10/27 04:51:09;;;;;;;3.65;1.98;;;;;;;;;;5091648;28;20028;-73
2023/10/27 04:53:36;;;;;;;6.13;2.17;;;;;;;;;;5092307;28;20421;-73
2023/10/27 04:56:02;;;;;;;5.85;2.00;;;;;;;;;;5092555;28;20101;-74
2023/10/27 04:58:28;;;;;;;6.57;2.10;;;;;;;;;;5091933;28;20043;-72
2023/10/27 05:00:54;;;;;;;4.13;1.95;;;;;;;;;;5092829;28;20024;-74
2023/10/27 05:03:20;;;;;;;4.35;2.08;;;;;;;;;;5093842;28;20054;-74
2023/10/27 05:05:46;;;;;;;5.55;2.10;;;;;;;;;;5092793;28;20024;-73
2023/10/27 05:08:12;;;;;;;4.38;2.03;;;;;;;;;;5093169;28;20020;-73
2023/10/27 05:10:40;;;;;;;3.97;2.00;;;;;;;;;;5090655;28;20028;-74
2023/10/27 05:13:06;;;;;;;7.60;2.00;;;;;;;;;;5092131;28;20074;-74
2023/10/27 05:15:32;;;;;;;9.02;2.15;;;;;;;;;;5092147;28;20492;-76
2023/10/27 05:18:04;;;;;;;5.88;1.90;;;;;;;;;;5091935;28;20107;-73
2023/10/27 05:20:31;;;;;;;4.75;2.47;;;;;;;;;;5091368;28;20467;-74
2023/10/27 05:22:58;;;;;;;3.25;2.00;;;;;;;;;;5091496;28;20047;-73
2023/10/27 05:25:25;;;;;;;5.82;2.42;;;;;;;;;;5091542;28;20026;-73
2023/10/27 05:27:51;;;;;;;6.57;2.53;;;;;;;;;;5091448;28;20025;-74
2023/10/27 05:30:17;;;;;;;9.18;2.60;;;;;;;;;;5090221;28;20027;-75
2023/10/27 05:32:43;;;;;;;8.10;2.45;;;;;;;;;;5092490;28;20024;-74
2023/10/27 05:35:09;;;;;;;6.88;2.45;;;;;;;;;;5095949;28;20028;-73
2023/10/27 05:37:35;;;;;;;5.00;2.80;;;;;;;;;;5094642;28;20060;-73
2023/10/27 05:40:01;;;;;;;8.35;2.50;;;;;;;;;;5089839;28;20551;-74
2023/10/27 05:42:27;;;;;;;9.15;2.65;;;;;;;;;;5092490;28;20020;-74
2023/10/27 05:44:53;;;;;;;5.95;3.10;;;;;;;;;;5095303;28;20032;-74
2023/10/27 05:47:19;;;;;;;5.82;3.20;;;;;;;;;;5095445;28;20024;-73
2023/10/27 05:49:45;;;;;;;10.27;3.28;;;;;;;;;;5094905;28;20024;-74
2023/10/27 05:52:11;;;;;;;9.13;3.00;;;;;;;;;;5095022;28;20024;-74
2023/10/27 05:54:37;;;;;;;6.78;2.53;;;;;;;;;;5095109;28;20031;-73
2023/10/27 05:57:03;;;;;;;6.05;2.90;;;;;;;;;;5095048;28;20093;-72
2023/10/27 05:59:30;;;;;;;6.47;3.15;;;;;;;;;;5095288;28;20035;-73
2023/10/27 06:01:56;;;;;;;5.13;2.70;;;;;;;;;;5097316;28;20024;-78
2023/10/27 06:04:22;;;;;;;6.00;2.85;;;;;;;;;;5101092;28;20024;-73
2023/10/27 06:06:48;;;;;;;5.95;2.97;;;;;;;;;;5094818;28;20103;-73
2023/10/27 06:09:14;;;;;;;9.07;3.13;;;;;;;;;;5094694;28;20028;-76
2023/10/27 06:11:41;;;;;;;6.07;3.30;;;;;;;;;;5094137;28;20024;-74
2023/10/27 06:14:07;;;;;;;13.45;4.40;;;;;;;;;;5093319;28;20024;-75
2023/10/27 06:16:34;;;;;;;9.20;4.32;;;;;;;;;;5094423;28;20024;-74
2023/10/27 06:19:00;;;;;;;12.32;4.30;;;;;;;;;;5095473;28;20048;-73
2023/10/27 06:21:27;;;;;;;6.60;3.90;;;;;;;;;;5096927;28;20020;-74
2023/10/27 06:23:53;;;;;;;8.82;4.28;;;;;;;;;;5095628;28;20020;-74
2023/10/27 06:26:19;;;;;;;6.22;3.47;;;;;;;;;;5096198;28;20383;-73
2023/10/27 06:28:46;;;;;;;8.75;4.88;;;;;;;;;;5094721;28;20028;-74
2023/10/27 06:31:12;;;;;;;9.43;3.63;;;;;;;;;;5094726;28;20103;-74
2023/10/27 06:33:38;;;;;;;12.45;4.28;;;;;;;;;;5094271;28;20482;-73
2023/10/27 06:36:05;;;;;;;15.02;6.10;;;;;;;;;;5093952;28;20081;-73
2023/10/27 06:38:30;;;;;;;10.55;4.32;;;;;;;;;;5093690;28;20036;-73
2023/10/27 06:40:56;;;;;;;9.25;3.70;;;;;;;;;;5093535;28;20020;-72
2023/10/27 06:43:23;;;;;;;13.20;5.50;;;;;;;;;;5093939;28;20117;-74
2023/10/27 06:45:49;;;;;;;6.95;4.03;;;;;;;;;;5094029;28;20506;-74
2023/10/27 06:48:15;;;;;;;10.45;5.05;;;;;;;;;;5093795;28;20093;-74
2023/10/27 06:50:41;;;;;;;7.85;3.30;;;;;;;;;;5094833;28;20472;-74
2023/10/27 06:53:07;;;;;;;5.68;3.10;;;;;;;;;;5094035;28;20070;-72
2023/10/27 06:55:33;;;;;;;16.60;6.60;;;;;;;;;;5095264;28;20026;-75
2023/10/27 06:58:00;;;;;;;10.27;4.20;;;;;;;;;;5095154;28;20055;-74
2023/10/27 07:00:26;;;;;;;5.75;2.85;;;;;;;;;;5093351;28;20020;-74
2023/10/27 07:02:52;;;;;;;7.40;3.20;;;;;;;;;;5093631;28;20058;-74
2023/10/27 07:05:18;;;;;;;8.63;3.65;;;;;;;;;;5093475;28;20058;-73
2023/10/27 07:07:44;;;;;;;8.05;3.67;;;;;;;;;;5093299;28;20048;-73
2023/10/27 07:10:12;;;;;;;14.45;3.95;;;;;;;;;;5093395;28;20020;-72
2023/10/27 07:12:38;;;;;;;7.20;3.65;;;;;;;;;;5093105;28;20464;-73
2023/10/27 07:15:04;;;;;;;8.18;4.35;;;;;;;;;;5093289;28;20070;-73
2023/10/27 07:17:30;;;;;;;6.97;3.35;;;;;;;;;;5092531;28;20032;-74
2023/10/27 07:19:56;;;;;;;6.07;2.92;;;;;;;;;;5093552;28;20034;-74
2023/10/27 07:22:22;;;;;;;8.85;3.25;;;;;;;;;;5094572;28;20462;-73
2023/10/27 07:24:48;;;;;;;11.23;3.47;;;;;;;;;;5095373;28;20035;-73
2023/10/27 07:27:14;;;;;;;7.88;3.97;;;;;;;;;;5095536;28;20024;-73
2023/10/27 07:29:41;;;;;;;9.43;2.97;;;;;;;;;;5095670;28;20031;-74
2023/10/27 07:32:08;;;;;;;8.93;3.08;;;;;;;;;;5092926;28;20024;-72
2023/10/27 07:34:34;;;;;;;8.00;3.40;;;;;;;;;;5092931;28;20024;-74
2023/10/27 07:37:00;;;;;;;8.18;3.40;;;;;;;;;;5092949;28;20024;-74
2023/10/27 07:39:26;;;;;;;7.63;2.88;;;;;;;;;;5093373;28;20024;-72
2023/10/27 07:41:52;;;;;;;6.72;2.92;;;;;;;;;;5092533;28;20103;-72
2023/10/27 07:44:19;;;;;;;9.05;3.20;;;;;;;;;;5094046;28;20028;-73
2023/10/27 07:46:45;;;;;;;12.75;2.80;;;;;;;;;;5093084;28;20059;-72
2023/10/27 07:49:11;;;;;;;5.32;2.35;;;;;;;;;;5098222;28;20316;-74
2023/10/27 07:51:38;;;;;;;9.95;2.92;;;;;;;;;;5103620;28;20046;-74
2023/10/27 07:54:06;;;;;;;6.15;2.70;;;;;;;;;;5102593;28;20044;-71
2023/10/27 07:56:32;;;;;;;11.27;2.72;;;;;;;;;;5094203;28;20020;-74
2023/10/27 07:58:58;;;;;;;3.83;2.20;;;;;;;;;;5095708;28;20040;-72
2023/10/27 08:01:25;;;;;;;9.20;3.50;;;;;;;;;;5098924;28;20035;-74
2023/10/27 08:03:51;;;;;;;11.10;4.18;;;;;;;;;;5107920;28;20071;-74
2023/10/27 08:06:17;;;;;;;9.68;2.55;;;;;;;;;;5106156;28;20024;-74
2023/10/27 08:08:43;;;;;;;5.82;2.30;;;;;;;;;;5095481;28;20250;-74
2023/10/27 08:11:14;;;;;;;8.50;2.72;;;;;;;;;;5093050;28;20032;-74
2023/10/27 08:13:40;;;;;;;10.27;1.95;;;;;;;;;;5094884;28;20153;-73
2023/10/27 08:16:06;;;;;;;4.75;2.50;;;;;;;;;;5095724;28;20483;-73
2023/10/27 08:18:32;;;;;;;6.57;2.72;;;;;;;;;;5095295;28;20028;-74
2023/10/27 08:20:58;;;;;;;4.22;1.98;;;;;;;;;;5095104;28;20436;-73
2023/10/27 08:23:24;;;;;;;6.10;2.60;;;;;;;;;;5092003;28;20103;-73
2023/10/27 08:25:51;;;;;;;8.43;2.22;;;;;;;;;;5092008;28;20106;-73
2023/10/27 08:28:17;;;;;;;7.70;2.50;;;;;;;;;;5092073;28;20021;-73
2023/10/27 08:30:44;;;;;;;5.95;3.00;;;;;;;;;;5094499;28;20028;-73
2023/10/27 08:33:10;;;;;;;6.50;2.53;;;;;;;;;;5093668;28;20228;-74
2023/10/27 08:35:36;;;;;;;5.72;2.85;;;;;;;;;;5092686;28;20028;-74
2023/10/27 08:38:02;;;;;;;12.60;5.50;;;;;;;;;;5094060;28;20028;-73
2023/10/27 08:40:28;;;;;;;5.13;2.60;;;;;;;;;;5094218;28;20123;-74
2023/10/27 08:42:54;;;;;;;8.45;3.40;;;;;;;;;;5092628;28;20036;-74
2023/10/27 08:45:21;;;;;;;15.77;4.30;;;;;;;;;;5093448;28;20035;-73
2023/10/27 08:47:47;;;;;;;7.93;2.58;;;;;;;;;;5093197;28;20431;-72
2023/10/27 08:50:13;;;;;;;4.93;2.28;;;;;;;;;;5091886;28;20413;-73
2023/10/27 08:52:39;;;;;;;10.68;2.65;;;;;;;;;;5092042;28;20020;-74
2023/10/27 08:55:12;;;;;;;5.50;2.20;;;;;;;;;;5091761;28;20024;-73
2023/10/27 08:57:38;;;;;;;7.30;2.45;;;;;;;;;;5091499;28;20070;-74
2023/10/27 09:00:06;;;;;;;5.10;2.20;;;;;;;;;;5091920;28;20076;-74
2023/10/27 09:02:32;;;;;;;4.57;2.10;;;;;;;;;;5095370;28;20352;-74
2023/10/27 09:05:03;;;;;;;7.00;2.38;;;;;;;;;;5098917;28;20019;-74
2023/10/27 09:07:35;;;;;;;6.40;2.33;;;;;;;;;;5102307;28;20027;-73
2023/10/27 09:10:02;;;;;;;4.97;2.03;;;;;;;;;;5091167;28;20028;-74
2023/10/27 09:12:30;;;;;;;5.25;2.05;;;;;;;;;;5097279;28;20020;-73
2023/10/27 09:15:01;;;;;;;4.45;2.33;;;;;;;;;;5092210;28;20031;-74
2023/10/27 09:17:29;;;;;;;6.82;2.28;;;;;;;;;;5091947;28;20111;-74
2023/10/27 09:20:05;;;;;;;6.22;2.40;;;;;;;;;;5095620;28;20031;-73
2023/10/27 09:22:31;;;;;;;4.88;2.15;;;;;;;;;;5095015;28;20047;-74
2023/10/27 09:25:13;;;;;;;4.43;2.08;;;;;;;;;;5094326;28;20016;-72
2023/10/27 09:27:43;;;;;;;7.10;2.85;;;;;;;;;;5095386;28;20020;-73
2023/10/27 09:30:12;;;;;;;8.00;3.03;;;;;;;;;;5095286;28;20039;-74
2023/10/27 09:32:40;;;;;;;7.22;2.83;;;;;;;;;;5095064;28;20020;-75
2023/10/27 09:35:10;;;;;;;12.77;4.15;;;;;;;;;;5093967;28;20487;-74
2023/10/27 09:37:37;;;;;;;5.85;2.45;;;;;;;;;;5095019;28;20480;-72
2023/10/27 09:40:05;;;;;;;4.57;2.05;;;;;;;;;;5095075;28;20131;-73
2023/10/27 09:42:32;;;;;;;3.42;2.35;;;;;;;;;;5096984;28;20076;-75
2023/10/27 09:45:03;;;;;;;3.83;2.22;;;;;;;;;;5095355;28;20032;-74
2023/10/27 09:47:42;;;;;;;5.68;2.38;;;;;;;;;;5096105;28;20024;-75
2023/10/27 09:50:12;;;;;;;6.45;2.70;;;;;;;;;;5096579;28;20028;-73
2023/10/27 09:52:40;;;;;;;9.38;3.30;;;;;;;;;;5094515;28;20031;-72
2023/10/27 09:55:08;;;;;;;7.68;2.55;;;;;;;;;;5095014;28;20171;-74
2023/10/27 09:57:35;;;;;;;7.65;2.92;;;;;;;;;;5095066;28;20031;-74
2023/10/27 10:00:07;;;;;;;6.85;2.92;;;;;;;;;;5095330;28;20027;-74
2023/10/27 10:02:33;;;;;;;6.95;3.28;;;;;;;;;;5095102;28;20093;-73
2023/10/27 10:05:00;;;;;;;5.45;3.15;;;;;;;;;;5095612;28;20028;-72
2023/10/27 10:07:52;;;;;;;10.90;3.22;;;;;;;;;;5093680;28;20031;-72
2023/10/27 10:10:35;;;;;;;5.32;2.90;;;;;;;;;;5095609;28;20024;-73
2023/10/27 10:13:01;;;;;;;5.57;3.30;;;;;;;;;;5093736;28;20028;-72
2023/10/27 10:15:28;;;;;;;9.63;3.08;;;;;;;;;;5095168;28;20497;-73
2023/10/27 10:17:55;;;;;;;6.25;3.13;;;;;;;;;;5093702;28;20035;-75
2023/10/27 10:20:44;;;;;;;5.13;2.85;;;;;;;;;;5096816;28;20128;-73
2023/10/27 10:23:11;;;;;;;7.85;2.63;;;;;;;;;;5094269;28;20071;-73
2023/10/27 10:25:38;;;;;;;5.50;2.28;;;;;;;;;;5094679;28;20082;-73
2023/10/27 10:28:07;;;;;;;5.75;2.92;;;;;;;;;;5092772;28;20552;-73
2023/10/27 10:30:33;;;;;;;8.73;2.63;;;;;;;;;;5093856;28;20027;-73
2023/10/27 10:33:15;;;;;;;5.35;2.95;;;;;;;;;;5094675;28;20020;-74
2023/10/27 10:35:41;;;;;;;7.53;2.40;;;;;;;;;;5094790;28;20095;-72
2023/10/27 10:38:30;;;;;;;5.75;2.50;;;;;;;;;;5094176;28;20024;-73
2023/10/27 10:41:02;;;;;;;7.85;2.67;;;;;;;;;;5090771;28;20052;-74
2023/10/27 10:43:36;;;;;;;5.05;2.50;;;;;;;;;;5093572;28;20025;-74
2023/10/27 10:46:03;;;;;;;9.33;2.63;;;;;;;;;;5094401;28;20468;-72
2023/10/27 10:48:30;;;;;;;4.80;2.17;;;;;;;;;;5092529;28;20081;-73
2023/10/27 10:50:59;;;;;;;4.43;2.38;;;;;;;;;;5093160;28;20502;-72
2023/10/27 10:53:25;;;;;;;7.97;2.95;;;;;;;;;;5093572;28;20055;-76
2023/10/27 10:55:59;;;;;;;5.10;2.17;;;;;;;;;;5093687;28;20124;-72
2023/10/27 10:58:25;;;;;;;3.20;1.83;;;;;;;;;;5093327;28;20020;-73
2023/10/27 11:00:51;;;;;;;5.35;2.17;;;;;;;;;;5092990;28;20020;-73
2023/10/27 11:03:18;;;;;;;14.00;3.08;;;;;;;;;;5093419;28;20024;-75
2023/10/27 11:05:44;;;;;;;4.97;2.53;;;;;;;;;;5093758;28;20663;-73
2023/10/27 11:08:10;;;;;;;8.13;3.10;;;;;;;;;;5093507;28;20024;-73
2023/10/27 11:10:36;;;;;;;5.75;2.63;;;;;;;;;;5093318;28;20526;-75
2023/10/27 11:13:06;;;;;;;5.35;2.67;;;;;;;;;;5093781;28;20032;-74
2023/10/27 11:15:43;;;;;;;6.18;2.72;;;;;;;;;;5097364;28;20028;-74
2023/10/27 11:18:11;;;;;;;8.88;2.33;;;;;;;;;;5102164;28;20533;-74
2023/10/27 11:20:38;;;;;;;8.57;2.80;;;;;;;;;;5095888;28;20028;-74
2023/10/27 11:23:11;;;;;;;7.25;3.22;;;;;;;;;;5093379;28;20016;-73
2023/10/27 11:25:37;;;;;;;3.38;2.30;;;;;;;;;;5093236;28;20028;-73
2023/10/27 11:28:18;;;;;;;5.57;2.53;;;;;;;;;;5093036;28;20660;-73
2023/10/27 11:30:55;;;;;;;3.88;2.70;;;;;;;;;;5092908;28;20016;-74
2023/10/27 11:33:21;;;;;;;4.47;2.25;;;;;;;;;;5093145;28;20035;-73
2023/10/27 11:35:48;;;;;;;6.30;3.15;;;;;;;;;;5092931;28;20028;-74
2023/10/27 11:38:14;;;;;;;6.72;3.30;;;;;;;;;;5093026;28;20020;-76
2023/10/27 11:40:40;;;;;;;4.40;2.30;;;;;;;;;;5092121;28;20024;-73
2023/10/27 11:43:06;;;;;;;11.38;2.80;;;;;;;;;;5092527;28;20360;-73
2023/10/27 11:45:32;;;;;;;3.67;2.60;;;;;;;;;;5096678;28;20123;-75
2023/10/27 11:47:58;;;;;;;4.45;2.50;;;;;;;;;;5100000;28;20448;-73
2023/10/27 11:50:24;;;;;;;6.40;2.90;;;;;;;;;;5100469;28;20065;-75
2023/10/27 11:52:50;;;;;;;3.95;2.75;;;;;;;;;;5093056;28;20047;-74
2023/10/27 11:55:17;;;;;;;7.60;3.63;;;;;;;;;;5093994;28;20393;-74
2023/10/27 11:57:43;;;;;;;3.42;2.40;;;;;;;;;;5106949;28;20023;-75
2023/10/27 12:00:09;;;;;;;3.97;2.20;;;;;;;;;;5113546;28;20036;-75
2023/10/27 12:02:35;;;;;;;5.10;2.90;;;;;;;;;;5102440;28;20073;-74
2023/10/27 12:05:01;;;;;;;8.35;2.50;;;;;;;;;;5100981;28;20024;-71
2023/10/27 12:07:28;;;;;;;4.15;2.05;;;;;;;;;;5104751;28;20024;-72
2023/10/27 12:09:54;;;;;;;4.25;2.75;;;;;;;;;;5103628;28;20027;-72
2023/10/27 12:12:21;;;;;;;4.70;2.22;;;;;;;;;;5109509;28;20032;-73
2023/10/27 12:14:48;;;;;;;5.15;2.47;;;;;;;;;;5110995;28;20034;-73
2023/10/27 12:17:16;;;;;;;11.60;2.60;;;;;;;;;;5108772;28;20028;-74
2023/10/27 12:19:41;;;;;;;6.65;2.50;;;;;;;;;;5110663;28;20319;-74
2023/10/27 12:22:10;;;;;;;4.70;2.20;;;;;;;;;;5105283;28;20055;-74
2023/10/27 12:24:36;;;;;;;6.13;2.22;;;;;;;;;;5095541;28;20110;-75
2023/10/27 12:27:04;;;;;;;3.75;2.30;;;;;;;;;;5090995;28;20047;-73
2023/10/27 12:29:31;;;;;;;4.15;2.40;;;;;;;;;;5092330;28;20038;-76
2023/10/27 12:31:57;;;;;;;2.30;1.80;;;;;;;;;;5092143;28;20028;-73
2023/10/27 12:34:23;;;;;;;6.75;2.50;;;;;;;;;;5091820;28;20046;-74
2023/10/27 12:36:49;;;;;;;4.18;2.53;;;;;;;;;;5091591;28;20481;-75
2023/10/27 12:39:18;;;;;;;7.35;3.72;;;;;;;;;;5091358;28;20101;-73
2023/10/27 12:41:44;;;;;;;3.03;2.20;;;;;;;;;;5095343;28;20024;-75
2023/10/27 12:44:10;;;;;;;4.13;2.58;;;;;;;;;;5092232;28;20028;-73
2023/10/27 12:46:36;;;;;;;4.82;2.42;;;;;;;;;;5092025;28;20023;-74
2023/10/27 12:49:03;;;;;;;9.18;4.72;;;;;;;;;;5091881;28;20447;-74
2023/10/27 12:51:29;;;;;;;4.20;2.70;;;;;;;;;;5094151;28;20035;-74
2023/10/27 12:53:55;;;;;;;4.57;2.22;;;;;;;;;;5098151;28;20368;-74
2023/10/27 12:56:21;;;;;;;8.82;2.63;;;;;;;;;;5098631;28;20024;-74
2023/10/27 12:58:47;;;;;;;4.45;2.70;;;;;;;;;;5098374;28;20372;-73
2023/10/27 13:01:13;;;;;;;5.30;2.20;;;;;;;;;;5100775;28;20044;-74
2023/10/27 13:03:39;;;;;;;4.10;2.50;;;;;;;;;;5100547;28;20395;-73
2023/10/27 13:06:06;;;;;;;5.15;2.58;;;;;;;;;;5098226;28;20099;-72
2023/10/27 13:08:33;;;;;;;9.70;3.70;;;;;;;;;;5098499;28;20027;-74
2023/10/27 13:11:03;;;;;;;4.05;2.58;;;;;;;;;;5098299;28;20027;-74
2023/10/27 13:13:29;;;;;;;6.40;2.65;;;;;;;;;;5098174;28;20058;-74
2023/10/27 13:15:55;;;;;;;6.75;2.92;;;;;;;;;;5098716;28;20445;-73
2023/10/27 13:18:21;;;;;;;4.60;2.80;;;;;;;;;;5098106;28;20020;-75
2023/10/27 13:20:48;;;;;;;5.35;2.75;;;;;;;;;;5097807;28;20024;-76
2023/10/27 13:23:14;;;;;;;5.50;2.80;;;;;;;;;;5098525;28;20436;-80
2023/10/27 13:25:40;;;;;;;4.57;2.45;;;;;;;;;;5097799;28;20536;-74
2023/10/27 13:28:08;;;;;;;4.72;2.65;;;;;;;;;;5098102;28;20047;-73
2023/10/27 13:30:34;;;;;;;5.95;3.15;;;;;;;;;;5097902;28;20059;-72
2023/10/27 13:33:02;;;;;;;7.65;3.00;;;;;;;;;;5097596;28;20023;-74
2023/10/27 13:35:29;;;;;;;5.50;3.20;;;;;;;;;;5098450;28;20111;-74
2023/10/27 13:38:04;;;;;;;4.82;3.05;;;;;;;;;;5098160;28;20115;-75
2023/10/27 13:40:34;;;;;;;4.45;3.20;;;;;;;;;;5099299;28;20493;-73
2023/10/27 13:43:00;;;;;;;7.97;3.72;;;;;;;;;;5101940;28;20024;-75
2023/10/27 13:45:26;;;;;;;4.95;3.53;;;;;;;;;;5099589;28;20433;-74
2023/10/27 13:47:52;;;;;;;6.00;2.78;;;;;;;;;;5099802;28;20391;-75
2023/10/27 13:50:18;;;;;;;6.60;3.63;;;;;;;;;;5102086;28;20129;-74
2023/10/27 13:52:44;;;;;;;6.63;3.13;;;;;;;;;;5105338;28;20088;-74
2023/10/27 13:55:10;;;;;;;6.43;3.10;;;;;;;;;;5098480;28;20060;-73
2023/10/27 13:57:37;;;;;;;12.30;3.83;;;;;;;;;;5098493;28;20107;-75
2023/10/27 14:00:09;;;;;;;5.43;3.17;;;;;;;;;;5104115;28;20569;-74
2023/10/27 14:02:35;;;;;;;13.38;3.85;;;;;;;;;;5098443;28;20027;-74
2023/10/27 14:05:01;;;;;;;9.82;4.80;;;;;;;;;;5094143;28;20043;-73
2023/10/27 14:07:28;;;;;;;6.15;4.10;;;;;;;;;;5094604;28;20020;-73
2023/10/27 14:09:54;;;;;;;6.20;4.18;;;;;;;;;;5094624;28;20445;-73
2023/10/27 14:12:20;;;;;;;8.52;4.22;;;;;;;;;;5093918;28;20228;-71
2023/10/27 14:14:45;;;;;;;8.20;4.05;;;;;;;;;;5094342;28;20039;-73
2023/10/27 14:17:11;;;;;;;7.10;4.03;;;;;;;;;;5094238;28;20032;-74
2023/10/27 14:19:38;;;;;;;9.38;3.95;;;;;;;;;;5094307;28;20035;-73
2023/10/27 14:22:04;;;;;;;7.40;4.13;;;;;;;;;;5093851;28;20024;-73
2023/10/27 14:24:32;;;;;;;9.82;4.20;;;;;;;;;;5094078;28;20365;-73
2023/10/27 14:26:59;;;;;;;8.32;4.30;;;;;;;;;;5094036;28;20016;-74
2023/10/27 14:29:24;;;;;;;8.73;4.80;;;;;;;;;;5093869;28;20054;-73
2023/10/27 14:31:50;;;;;;;9.90;4.50;;;;;;;;;;5093537;28;20052;-74
2023/10/27 14:34:17;;;;;;;7.40;3.75;;;;;;;;;;5094235;28;20084;-75
2023/10/27 14:36:43;;;;;;;11.50;4.05;;;;;;;;;;5094539;28;20058;-74
2023/10/27 14:39:13;;;;;;;9.15;3.90;;;;;;;;;;5094111;28;20051;-74